Paxton, Texas
Current Conditions -  °F | °C
As of 5:56 PM on Tuesday 25 Nov 2014 (Local Time) from KSHV Reporting Station
Few Clouds Few Clouds  
Wind Chill: 47°   Ceiling: Unl
Heat Index: 49°   Visibility: 10mi
Dew Point: 33°   Wind: 5mph
Humidity: 54%   Direction: 160°SSE
Pressure: 30.18"   Gusts: NA
Location:  31.9194°N, 94.0667°W
Report Text: KSHV 252356Z 16004KT 10SM FEW038 FEW270 09/01 A3018 RMK AO2 SLP219 T00940006 10161 20083 55003
Loading
Personal Weather Stations






























Interactive Weather Map New forecast layout! Learn more

10-Day Weather Forecast

Advertisements
Track Severe Weather on mobile